createdAt,value
2017-12-24T00:01:05.578Z,101947.84
2017-12-24T00:03:38.105Z,101942.03
2017-12-24T00:06:05.901Z,101939.83
2017-12-24T00:08:32.966Z,101949.06
2017-12-24T00:11:00.011Z,101946.03
2017-12-24T00:13:32.337Z,101948.61
2017-12-24T00:16:06.337Z,101946.03
2017-12-24T00:18:33.317Z,101939.94
2017-12-24T00:21:00.094Z,101939.44
2017-12-24T00:23:33.368Z,101934.16
2017-12-24T00:26:01.749Z,101941.16
2017-12-24T00:28:29.956Z,101931.14
2017-12-24T00:31:00.100Z,101935.97
2017-12-24T00:33:28.233Z,101940.76
2017-12-24T00:35:56.706Z,101929.38
2017-12-24T00:38:24.804Z,101903.44
2017-12-24T00:40:51.587Z,101899.88
2017-12-24T00:43:18.517Z,101905.26
2017-12-24T00:45:45.439Z,101903.00
2017-12-24T00:48:12.273Z,101910.03
2017-12-24T00:50:39.106Z,101922.40
2017-12-24T00:53:05.922Z,101919.66
2017-12-24T00:55:32.744Z,101931.53
2017-12-24T00:57:59.567Z,101942.03
2017-12-24T01:00:26.509Z,101922.30
2017-12-24T01:02:53.316Z,101910.97
2017-12-24T01:05:20.129Z,101907.84
2017-12-24T01:07:47.211Z,101926.80
2017-12-24T01:10:14.042Z,101926.80
2017-12-24T01:12:40.957Z,101908.72
2017-12-24T01:15:07.933Z,101914.94
2017-12-24T01:17:35.547Z,101907.45
2017-12-24T01:20:02.419Z,101903.44
2017-12-24T01:22:29.384Z,101906.14
2017-12-24T01:24:57.306Z,101901.74
2017-12-24T01:27:24.178Z,101906.08
2017-12-24T01:29:51.053Z,101897.78
2017-12-24T01:32:17.882Z,101896.47
2017-12-24T01:34:44.707Z,101899.11
2017-12-24T01:37:11.525Z,101901.30
2017-12-24T01:39:38.376Z,101912.38
2017-12-24T01:42:05.242Z,101897.40
2017-12-24T01:44:32.053Z,101895.70
2017-12-24T01:46:58.900Z,101895.70
2017-12-24T01:49:25.739Z,101896.12
2017-12-24T01:51:54.631Z,101908.48
2017-12-24T01:54:22.517Z,101895.25
2017-12-24T01:56:49.475Z,101908.93
2017-12-24T01:59:16.797Z,101902.39
2017-12-24T02:01:44.621Z,101883.50
2017-12-24T02:04:12.048Z,101888.75
2017-12-24T02:06:39.037Z,101881.72
2017-12-24T02:09:06.081Z,101890.08
2017-12-24T02:11:33.112Z,101887.45
2017-12-24T02:14:00.226Z,101890.52
2017-12-24T02:16:27.424Z,101895.34
2017-12-24T02:18:55.961Z,101907.67
2017-12-24T02:21:24.499Z,101908.16
2017-12-24T02:23:52.175Z,101914.31
2017-12-24T02:26:19.668Z,101917.78
2017-12-24T02:28:47.749Z,101916.90
2017-12-24T02:31:15.720Z,101923.88
2017-12-24T02:33:43.114Z,101920.02
2017-12-24T02:36:11.176Z,101912.50
2017-12-24T02:38:38.610Z,101906.73
2017-12-24T02:41:05.841Z,101907.23
2017-12-24T02:43:33.922Z,101908.16
2017-12-24T02:46:01.089Z,101901.95
2017-12-24T02:48:29.199Z,101905.08
2017-12-24T02:50:56.926Z,101903.37
2017-12-24T02:53:24.582Z,101896.77
2017-12-24T02:55:52.170Z,101906.45
2017-12-24T02:58:19.418Z,101904.70
2017-12-24T03:00:46.866Z,101889.70
2017-12-24T03:03:14.099Z,101885.78
2017-12-24T03:05:41.478Z,101891.06
2017-12-24T03:08:08.315Z,101891.52
2017-12-24T03:10:35.133Z,101881.34
2017-12-24T03:13:02.727Z,101876.12
2017-12-24T03:15:29.512Z,101868.66
2017-12-24T03:17:56.303Z,101856.39
2017-12-24T03:20:23.120Z,101850.19
2017-12-24T03:22:50.014Z,101863.82
2017-12-24T03:25:16.827Z,101846.77
2017-12-24T03:27:43.674Z,101855.03
2017-12-24T03:30:10.488Z,101854.20
2017-12-24T03:32:37.325Z,101849.37
2017-12-24T03:35:04.169Z,101845.80
2017-12-24T03:37:31.719Z,101834.86
2017-12-24T03:39:58.498Z,101838.37
2017-12-24T03:42:25.293Z,101834.91
2017-12-24T03:44:52.111Z,101833.98
2017-12-24T03:47:19.146Z,101832.23
2017-12-24T03:49:45.920Z,101846.72
2017-12-24T03:52:12.734Z,101840.91
2017-12-24T03:54:40.276Z,101844.47
2017-12-24T03:57:07.090Z,101840.52
2017-12-24T03:59:33.897Z,101839.64
2017-12-24T04:02:00.697Z,101839.69
2017-12-24T04:04:27.532Z,101843.21
2017-12-24T04:06:54.323Z,101835.80
2017-12-24T04:09:21.116Z,101837.49
2017-12-24T04:11:47.929Z,101844.59
2017-12-24T04:14:15.454Z,101843.27
2017-12-24T04:16:42.462Z,101838.44
2017-12-24T04:19:09.264Z,101833.16
2017-12-24T04:21:36.076Z,101831.45
2017-12-24T04:24:02.920Z,101834.48
2017-12-24T04:26:29.734Z,101828.03
2017-12-24T04:28:56.536Z,101823.60
2017-12-24T04:31:23.333Z,101824.47
2017-12-24T04:33:50.851Z,101824.86
2017-12-24T04:36:17.629Z,101822.93
2017-12-24T04:38:44.466Z,101820.19
2017-12-24T04:41:11.300Z,101825.47
2017-12-24T04:43:38.852Z,101827.16
2017-12-24T04:46:05.651Z,101821.55
2017-12-24T04:48:32.442Z,101825.91
2017-12-24T04:50:59.271Z,101820.73
2017-12-24T04:53:26.069Z,101817.66
2017-12-24T04:55:52.880Z,101820.68
2017-12-24T04:58:19.696Z,101814.87
2017-12-24T05:00:46.509Z,101815.45
2017-12-24T05:03:13.383Z,101814.25
2017-12-24T05:05:40.189Z,101802.67
2017-12-24T05:08:06.977Z,101808.11
2017-12-24T05:10:34.551Z,101810.63
2017-12-24T05:13:02.104Z,101810.73
2017-12-24T05:15:28.936Z,101810.29
2017-12-24T05:17:55.736Z,101805.52
2017-12-24T05:20:22.514Z,101814.30
2017-12-24T05:22:50.106Z,101801.99
2017-12-24T05:25:16.966Z,101793.16
2017-12-24T05:27:43.758Z,101803.75
2017-12-24T05:30:10.592Z,101804.59
2017-12-24T05:32:38.145Z,101799.80
2017-12-24T05:35:05.723Z,101793.22
2017-12-24T05:37:33.279Z,101795.02
2017-12-24T05:40:00.187Z,101803.75
2017-12-24T05:42:26.980Z,101808.11
2017-12-24T05:44:53.787Z,101799.36
2017-12-24T05:47:21.336Z,101801.56
2017-12-24T05:49:48.994Z,101800.19
2017-12-24T05:52:15.796Z,101798.05
2017-12-24T05:54:42.600Z,101800.34
2017-12-24T05:57:09.420Z,101792.06
2017-12-24T05:59:36.971Z,101792.02
2017-12-24T06:02:03.774Z,101791.17
2017-12-24T06:04:31.444Z,101795.97
2017-12-24T06:06:59.013Z,101790.19
2017-12-24T06:09:26.556Z,101797.67
2017-12-24T06:11:53.397Z,101789.80
2017-12-24T06:14:20.232Z,101794.08
2017-12-24T06:16:47.787Z,101782.83
2017-12-24T06:19:14.581Z,101792.84
2017-12-24T06:21:41.486Z,101788.09
2017-12-24T06:24:08.292Z,101787.22
2017-12-24T06:26:35.140Z,101789.37
2017-12-24T06:29:02.690Z,101784.10
2017-12-24T06:31:29.516Z,101781.12
2017-12-24T06:33:57.079Z,101774.44
2017-12-24T06:36:23.956Z,101773.60
2017-12-24T06:38:50.745Z,101776.63
2017-12-24T06:41:17.575Z,101778.39
2017-12-24T06:43:45.144Z,101778.39
2017-12-24T06:46:11.975Z,101786.84
2017-12-24T06:48:39.473Z,101781.58
2017-12-24T06:51:06.290Z,101782.50
2017-12-24T06:53:33.116Z,101778.11
2017-12-24T06:55:59.898Z,101782.48
2017-12-24T06:58:26.751Z,101780.03
2017-12-24T07:00:53.539Z,101773.33
2017-12-24T07:03:20.363Z,101779.59
2017-12-24T07:05:47.200Z,101774.21
2017-12-24T07:08:14.018Z,101769.48
2017-12-24T07:10:40.850Z,101762.39
2017-12-24T07:13:07.637Z,101764.98
2017-12-24T07:15:34.523Z,101768.55
2017-12-24T07:18:02.133Z,101759.70
2017-12-24T07:20:28.952Z,101757.95
2017-12-24T07:22:55.885Z,101764.05
2017-12-24T07:25:22.720Z,101758.78
2017-12-24T07:27:49.531Z,101757.02
2017-12-24T07:30:18.427Z,101761.80
2017-12-24T07:32:45.407Z,101759.66
2017-12-24T07:35:12.202Z,101762.06
2017-12-24T07:37:38.989Z,101768.55
2017-12-24T07:40:07.015Z,101766.95
2017-12-24T07:42:34.571Z,101762.29
2017-12-24T07:45:01.421Z,101759.00
2017-12-24T07:47:29.195Z,101759.48
2017-12-24T07:49:56.036Z,101757.90
2017-12-24T07:52:22.851Z,101764.25
2017-12-24T07:54:49.673Z,101765.73
2017-12-24T07:57:17.246Z,101767.95
2017-12-24T07:59:44.060Z,101767.54
2017-12-24T08:02:10.990Z,101761.74
2017-12-24T08:04:37.915Z,101759.59
2017-12-24T08:07:06.480Z,101764.47
2017-12-24T08:09:33.711Z,101758.00
2017-12-24T08:12:01.332Z,101757.98
2017-12-24T08:14:35.554Z,101754.54
2017-12-24T08:17:03.468Z,101752.61
2017-12-24T08:19:30.876Z,101752.57
2017-12-24T08:30:37.638Z,101742.13
2017-12-24T08:45:05.610Z,101735.92
2017-12-24T08:47:33.334Z,101739.39
2017-12-24T08:50:07.485Z,101733.19
2017-12-24T08:52:57.041Z,101733.78
2017-12-24T08:58:25.095Z,101726.21
2017-12-24T09:00:59.388Z,101731.38
2017-12-24T09:03:30.303Z,101730.94
2017-12-24T09:06:01.339Z,101731.82
2017-12-24T09:08:29.669Z,101731.33
2017-12-24T09:20:14.924Z,101733.08
2017-12-24T09:22:42.999Z,101740.55
2017-12-24T09:25:20.205Z,101735.22
2017-12-24T09:27:51.498Z,101739.77
2017-12-24T09:30:18.552Z,101728.69
2017-12-24T09:32:49.878Z,101722.53
2017-12-24T09:35:16.835Z,101724.67
2017-12-24T09:37:43.754Z,101718.53
2017-12-24T09:40:11.902Z,101723.41
2017-12-24T09:42:40.403Z,101715.45
2017-12-24T09:45:12.270Z,101718.14
2017-12-24T09:47:40.152Z,101718.97
2017-12-24T09:50:07.056Z,101718.42
2017-12-24T09:52:33.943Z,101721.98
2017-12-24T09:55:00.861Z,101713.14
2017-12-24T09:57:27.765Z,101711.34
2017-12-24T09:59:59.374Z,101700.41
2017-12-24T10:02:26.275Z,101708.25
2017-12-24T10:04:56.241Z,101700.73
2017-12-24T10:07:23.179Z,101697.60
2017-12-24T10:09:50.349Z,101700.23
2017-12-24T10:12:17.280Z,101692.28
2017-12-24T10:14:49.769Z,101691.84
2017-12-24T10:17:16.736Z,101687.44
2017-12-24T10:19:43.663Z,101685.30
2017-12-24T10:22:10.601Z,101686.51
2017-12-24T10:24:38.401Z,101683.05
2017-12-24T10:27:05.220Z,101679.15
2017-12-24T10:29:32.128Z,101687.55
2017-12-24T10:31:58.985Z,101675.14
2017-12-24T10:34:28.467Z,101685.73
2017-12-24T10:36:55.380Z,101685.75
2017-12-24T10:39:22.272Z,101682.71
2017-12-24T10:41:49.190Z,101676.95
2017-12-24T10:44:16.988Z,101678.72
2017-12-24T11:08:11.863Z,101646.15
2017-12-24T11:10:39.872Z,101624.72
2017-12-24T11:13:07.488Z,101639.12
2017-12-24T11:15:34.391Z,101630.33
2017-12-24T11:18:01.241Z,101622.41
2017-12-24T11:20:28.074Z,101626.19
2017-12-24T11:22:54.918Z,101633.54
2017-12-24T11:25:23.005Z,101628.27
2017-12-24T11:27:51.104Z,101633.10
2017-12-24T11:30:18.938Z,101618.61
2017-12-24T11:32:46.482Z,101616.79
2017-12-24T11:35:13.314Z,101610.69
2017-12-24T11:37:43.725Z,101618.60
2017-12-24T11:40:10.519Z,101611.47
2017-12-24T11:42:37.326Z,101607.98
2017-12-24T11:45:04.086Z,101601.79
2017-12-24T11:47:30.908Z,101593.56
2017-12-24T11:49:58.421Z,101592.25
2017-12-24T11:52:25.267Z,101582.07
2017-12-24T11:54:52.191Z,101575.97
2017-12-24T11:57:18.971Z,101575.44
2017-12-24T11:59:46.654Z,101574.16
2017-12-24T12:02:14.539Z,101561.42
2017-12-24T12:04:42.079Z,101558.79
2017-12-24T12:07:08.879Z,101555.27
2017-12-24T12:09:36.520Z,101560.98
2017-12-24T12:12:05.284Z,101560.05
2017-12-24T12:14:33.921Z,101554.71
2017-12-24T12:17:03.769Z,101556.39
2017-12-24T12:19:35.195Z,101556.83
2017-12-24T12:22:03.561Z,101564.27
2017-12-24T12:24:35.258Z,101551.96
2017-12-24T12:27:09.803Z,101554.59
2017-12-24T12:29:36.641Z,101551.13
2017-12-24T12:32:13.714Z,101547.09
2017-12-24T12:34:40.602Z,101548.44
2017-12-24T12:37:07.496Z,101534.87
2017-12-24T12:39:34.469Z,101551.19
2017-12-24T12:42:02.000Z,101544.60
2017-12-24T12:44:29.229Z,101531.85
2017-12-24T12:46:56.279Z,101523.06
2017-12-24T12:49:23.288Z,101521.70
2017-12-24T12:51:50.819Z,101527.02
2017-12-24T12:54:17.665Z,101518.17
2017-12-24T12:56:44.492Z,101520.37
2017-12-24T12:59:12.077Z,101521.74
2017-12-24T13:01:38.936Z,101520.32
2017-12-24T13:04:05.720Z,101517.30
2017-12-24T13:06:32.701Z,101523.39
2017-12-24T13:08:59.518Z,101514.64
2017-12-24T13:11:26.385Z,101508.45
2017-12-24T13:13:53.633Z,101511.97
2017-12-24T13:16:20.494Z,101505.75
2017-12-24T13:18:47.327Z,101512.82
2017-12-24T13:21:14.103Z,101511.07
2017-12-24T13:23:40.975Z,101508.05
2017-12-24T13:26:08.540Z,101500.46
2017-12-24T13:28:35.366Z,101501.36
2017-12-24T13:31:02.178Z,101500.02
2017-12-24T13:33:29.509Z,101503.92
2017-12-24T13:35:56.340Z,101496.02
2017-12-24T13:38:23.164Z,101504.73
2017-12-24T13:40:50.036Z,101495.55
2017-12-24T13:43:17.605Z,101483.27
2017-12-24T13:45:44.448Z,101497.70
2017-12-24T13:48:11.227Z,101492.42
2017-12-24T13:50:38.042Z,101491.55
2017-12-24T13:53:05.551Z,101491.12
2017-12-24T13:55:32.334Z,101489.86
2017-12-24T13:57:59.214Z,101484.13
2017-12-24T14:00:28.671Z,101488.10
2017-12-24T14:02:55.474Z,101485.08
2017-12-24T14:05:22.275Z,101490.28
2017-12-24T14:07:49.058Z,101486.86
2017-12-24T14:10:15.859Z,101489.86
2017-12-24T14:12:43.412Z,101476.28
2017-12-24T14:15:10.214Z,101477.60
2017-12-24T14:17:37.010Z,101477.60
2017-12-24T14:20:03.794Z,101471.84
2017-12-24T14:22:30.585Z,101469.31
2017-12-24T14:24:58.123Z,101475.47
2017-12-24T14:27:24.889Z,101471.52
2017-12-24T14:29:51.759Z,101468.00
2017-12-24T14:32:19.907Z,101468.45
2017-12-24T14:34:46.747Z,101464.94
2017-12-24T14:37:13.538Z,101466.69
2017-12-24T14:39:40.323Z,101467.13
2017-12-24T14:42:07.114Z,101457.95
2017-12-24T14:44:34.679Z,101467.21
2017-12-24T14:47:01.480Z,101475.05
2017-12-24T14:49:28.286Z,101473.79
2017-12-24T14:51:55.077Z,101467.52
2017-12-24T14:54:22.661Z,101462.31
2017-12-24T14:56:49.425Z,101458.80
2017-12-24T14:59:16.282Z,101463.62
2017-12-24T15:01:43.133Z,101471.16
2017-12-24T15:04:10.649Z,101461.05
2017-12-24T15:06:37.443Z,101458.84
2017-12-24T15:09:04.293Z,101469.31
2017-12-24T15:11:31.069Z,101464.55
2017-12-24T15:13:57.886Z,101460.17
2017-12-24T15:16:24.665Z,101465.50
2017-12-24T15:18:51.481Z,101466.75
2017-12-24T15:21:18.266Z,101460.05
2017-12-24T15:23:45.054Z,101461.48
2017-12-24T15:26:11.886Z,101461.94
2017-12-24T15:28:38.671Z,101465.01
2017-12-24T15:31:05.444Z,101468.52
2017-12-24T15:33:32.253Z,101459.80
2017-12-24T15:35:59.078Z,101464.17
2017-12-24T15:38:25.920Z,101463.80
2017-12-24T15:40:52.748Z,101462.07
2017-12-24T15:43:19.522Z,101457.61
2017-12-24T15:45:46.400Z,101456.41
2017-12-24T15:48:13.192Z,101457.15
2017-12-24T15:50:40.718Z,101454.64
2017-12-24T15:53:07.531Z,101460.68
2017-12-24T15:55:35.089Z,101454.64
2017-12-24T15:58:01.864Z,101449.37
2017-12-24T16:00:29.400Z,101449.02
2017-12-24T16:02:56.199Z,101445.86
2017-12-24T16:05:23.865Z,101443.67
2017-12-24T16:07:50.775Z,101448.18
2017-12-24T16:10:17.583Z,101448.18
2017-12-24T16:12:44.386Z,101444.67
2017-12-24T16:15:11.279Z,101446.86
2017-12-24T16:17:38.029Z,101443.73
2017-12-24T16:20:04.818Z,101442.43
2017-12-24T16:22:31.620Z,101442.09
2017-12-24T16:24:59.166Z,101440.21
2017-12-24T16:27:25.954Z,101442.43
2017-12-24T16:29:53.491Z,101432.38
2017-12-24T16:32:20.329Z,101435.88
2017-12-24T16:34:47.129Z,101431.92
2017-12-24T16:37:13.898Z,101420.95
2017-12-24T16:39:40.708Z,101436.77
2017-12-24T16:42:07.504Z,101426.16
2017-12-24T16:44:34.302Z,101424.02
2017-12-24T16:47:01.122Z,101430.17
2017-12-24T16:49:27.902Z,101424.96
2017-12-24T16:51:55.423Z,101429.36
2017-12-24T16:54:22.264Z,101430.67
2017-12-24T16:56:49.050Z,101427.09
2017-12-24T16:59:15.910Z,101422.28
2017-12-24T17:01:42.693Z,101423.72
2017-12-24T17:04:09.548Z,101421.89
2017-12-24T17:06:36.411Z,101426.30
2017-12-24T17:09:07.327Z,101435.07
2017-12-24T17:11:34.451Z,101434.20
2017-12-24T17:14:01.335Z,101430.68
2017-12-24T17:16:28.853Z,101428.42
2017-12-24T17:18:55.651Z,101425.78
2017-12-24T17:21:22.444Z,101423.64
2017-12-24T17:23:51.132Z,101432.50
2017-12-24T17:26:17.945Z,101431.48
2017-12-24T17:28:44.793Z,101435.06
2017-12-24T17:31:11.579Z,101429.41
2017-12-24T17:33:38.372Z,101431.19
2017-12-24T17:36:05.189Z,101431.61
2017-12-24T17:38:32.024Z,101425.45
2017-12-24T17:40:58.824Z,101424.21
2017-12-24T17:43:25.594Z,101421.95
2017-12-24T17:45:52.400Z,101421.06
2017-12-24T17:48:19.205Z,101429.50
2017-12-24T17:50:45.997Z,101425.84
2017-12-24T17:53:13.537Z,101425.84
2017-12-24T17:55:40.317Z,101416.73
2017-12-24T17:58:07.090Z,101416.56
2017-12-24T18:00:33.901Z,101421.14
2017-12-24T18:03:00.662Z,101420.58
2017-12-24T18:05:27.455Z,101423.66
2017-12-24T18:07:54.461Z,101424.59
2017-12-24T18:10:21.280Z,101422.28
2017-12-24T18:12:48.094Z,101416.06
2017-12-24T18:15:15.298Z,101421.01
2017-12-24T18:17:42.148Z,101411.70
2017-12-24T18:20:08.934Z,101419.57
2017-12-24T18:22:35.778Z,101418.33
2017-12-24T18:25:02.550Z,101417.38
2017-12-24T18:27:29.340Z,101410.46
2017-12-24T18:29:56.883Z,101407.83
2017-12-24T18:32:23.674Z,101405.13
2017-12-24T18:34:50.515Z,101402.98
2017-12-24T18:37:17.783Z,101399.36
2017-12-24T18:39:45.333Z,101400.74
2017-12-24T18:42:12.190Z,101399.41
2017-12-24T18:44:39.715Z,101397.61
2017-12-24T18:47:06.486Z,101396.77
2017-12-24T18:49:34.015Z,101391.50
2017-12-24T18:52:00.786Z,101386.62
2017-12-24T18:54:27.607Z,101391.08
2017-12-24T18:56:54.385Z,101388.39
2017-12-24T18:59:22.487Z,101390.63
2017-12-24T19:01:49.315Z,101394.53
2017-12-24T19:04:16.112Z,101387.98
2017-12-24T19:06:42.902Z,101388.31
2017-12-24T19:09:09.734Z,101384.41
2017-12-24T19:11:36.536Z,101380.91
2017-12-24T19:14:04.053Z,101378.63
2017-12-24T19:16:30.881Z,101379.52
2017-12-24T19:18:57.641Z,101376.45
2017-12-24T19:21:25.177Z,101373.42
2017-12-24T19:23:51.957Z,101371.61
2017-12-24T19:26:18.756Z,101372.49
2017-12-24T19:28:45.576Z,101365.39
2017-12-24T19:31:12.372Z,101358.94
2017-12-24T19:33:39.163Z,101372.11
2017-12-24T19:36:05.963Z,101361.12
2017-12-24T19:38:33.531Z,101364.20
2017-12-24T19:41:00.319Z,101359.36
2017-12-24T19:43:27.090Z,101365.06
2017-12-24T19:45:53.884Z,101361.63
2017-12-24T19:48:20.682Z,101362.97
2017-12-24T19:50:48.223Z,101354.61
2017-12-24T19:53:15.008Z,101360.39
2017-12-24T19:55:41.799Z,101357.74
2017-12-24T19:58:08.594Z,101345.43
2017-12-24T20:00:35.456Z,101342.36
2017-12-24T20:03:02.315Z,101344.58
2017-12-24T20:05:29.098Z,101342.36
2017-12-24T20:07:55.902Z,101338.48
2017-12-24T20:10:22.750Z,101342.88
2017-12-24T20:12:50.272Z,101333.27
2017-12-24T20:15:17.043Z,101331.07
2017-12-24T20:17:43.835Z,101334.03
2017-12-24T20:20:10.652Z,101331.01
2017-12-24T20:22:37.503Z,101341.50
2017-12-24T20:25:04.297Z,101328.25
2017-12-24T20:27:31.880Z,101323.09
2017-12-24T20:29:58.726Z,101330.52
2017-12-24T20:32:25.502Z,101338.80
2017-12-24T20:34:52.367Z,101331.38
2017-12-24T20:37:19.163Z,101334.03
2017-12-24T20:39:45.981Z,101329.13
2017-12-24T20:42:12.734Z,101330.83
2017-12-24T20:44:39.528Z,101322.48
2017-12-24T20:47:07.075Z,101324.73
2017-12-24T20:49:33.881Z,101325.10
2017-12-24T20:52:00.686Z,101324.30
2017-12-24T20:54:27.507Z,101324.28
2017-12-24T20:56:54.339Z,101319.95
2017-12-24T20:59:21.146Z,101324.34
2017-12-24T21:01:47.940Z,101322.61
2017-12-24T21:04:14.732Z,101317.38
2017-12-24T21:06:42.325Z,101317.77
2017-12-24T21:09:09.133Z,101316.51
2017-12-24T21:11:35.919Z,101313.42
2017-12-24T21:14:02.707Z,101316.08
2017-12-24T21:16:29.720Z,101312.98
2017-12-24T21:18:56.534Z,101304.66
2017-12-24T21:21:23.360Z,101296.30
2017-12-24T21:23:50.145Z,101314.82
2017-12-24T21:26:17.697Z,101306.84
2017-12-24T21:28:44.509Z,101303.80
2017-12-24T21:31:11.411Z,101304.71
2017-12-24T21:33:38.213Z,101312.13
2017-12-24T21:36:05.886Z,101308.60
2017-12-24T21:38:33.424Z,101306.05
2017-12-24T21:41:01.280Z,101314.02
2017-12-24T21:43:28.135Z,101303.53
2017-12-24T21:45:55.987Z,101304.78
2017-12-24T21:48:22.958Z,101302.97
2017-12-24T21:50:50.254Z,101300.40
2017-12-24T21:53:17.075Z,101289.48
2017-12-24T21:55:44.874Z,101298.70
2017-12-24T21:58:11.851Z,101294.70
2017-12-24T22:00:38.773Z,101296.52
2017-12-24T22:03:07.063Z,101301.84
2017-12-24T22:05:35.499Z,101311.00
2017-12-24T22:08:02.321Z,101311.90
2017-12-24T22:10:30.196Z,101309.25
2017-12-24T22:12:58.288Z,101311.44
2017-12-24T22:15:25.167Z,101305.80
2017-12-24T22:17:52.836Z,101303.61
2017-12-24T22:20:19.693Z,101305.69
2017-12-24T22:22:46.788Z,101309.27
2017-12-24T22:25:14.073Z,101310.49
2017-12-24T22:27:40.969Z,101308.17
2017-12-24T22:30:07.994Z,101304.73
2017-12-24T22:32:35.669Z,101310.50
2017-12-24T22:35:03.174Z,101312.70
2017-12-24T22:37:30.330Z,101306.48
2017-12-24T22:39:58.287Z,101317.52
2017-12-24T22:42:25.910Z,101310.14
2017-12-24T22:44:52.662Z,101309.11
2017-12-24T22:47:19.529Z,101300.41
2017-12-24T22:49:46.305Z,101299.47
2017-12-24T22:52:13.798Z,101305.25
2017-12-24T22:54:40.664Z,101301.30
2017-12-24T22:57:07.515Z,101300.98
2017-12-24T22:59:34.317Z,101287.42
2017-12-24T23:02:01.940Z,101291.81
2017-12-24T23:04:28.731Z,101294.91
2017-12-24T23:06:55.578Z,101291.02
2017-12-24T23:09:22.452Z,101284.86
2017-12-24T23:11:49.264Z,101290.63
2017-12-24T23:14:16.098Z,101288.42
2017-12-24T23:16:43.676Z,101294.09
2017-12-24T23:19:11.218Z,101295.90
2017-12-24T23:21:38.067Z,101288.88
2017-12-24T23:24:04.888Z,101285.80
2017-12-24T23:26:32.517Z,101289.82
2017-12-24T23:28:59.380Z,101286.19
2017-12-24T23:31:26.412Z,101286.23
2017-12-24T23:33:53.274Z,101284.87
2017-12-24T23:36:20.055Z,101284.87
2017-12-24T23:38:48.373Z,101285.73
2017-12-24T23:41:15.179Z,101287.50
2017-12-24T23:43:41.982Z,101292.83
2017-12-24T23:46:08.783Z,101288.52
2017-12-24T23:48:36.446Z,101289.38
2017-12-24T23:51:03.298Z,101281.91
2017-12-24T23:53:30.070Z,101290.77
2017-12-24T23:55:56.889Z,101288.56
2017-12-24T23:58:24.414Z,101291.60
